createdAt,value
2023-03-10T00:01:28.045Z,7.30
2023-03-10T00:03:57.176Z,7.30
2023-03-10T00:06:27.773Z,7.40
2023-03-10T00:08:56.059Z,7.40
2023-03-10T00:11:23.243Z,7.40
2023-03-10T00:13:50.394Z,7.40
2023-03-10T00:16:24.201Z,7.40
2023-03-10T00:18:51.454Z,7.30
2023-03-10T00:21:26.208Z,7.20
2023-03-10T00:23:53.802Z,7.20
2023-03-10T00:26:21.936Z,7.20
2023-03-10T00:28:50.622Z,7.10
2023-03-10T00:31:21.575Z,7.00
2023-03-10T00:33:49.765Z,6.90
2023-03-10T00:36:23.865Z,6.90
2023-03-10T00:38:52.638Z,6.80
2023-03-10T00:41:26.604Z,6.80
2023-03-10T00:43:54.075Z,6.70
2023-03-10T00:46:21.596Z,6.70
2023-03-10T00:48:48.854Z,6.60
2023-03-10T00:51:17.166Z,6.50
2023-03-10T00:53:44.569Z,6.50
2023-03-10T00:56:16.828Z,6.40
2023-03-10T00:58:45.947Z,6.40
2023-03-10T01:01:37.373Z,6.40
2023-03-10T01:04:12.906Z,6.30
2023-03-10T01:06:40.797Z,6.20
2023-03-10T01:09:08.453Z,6.20
2023-03-10T01:11:35.719Z,6.10
2023-03-10T01:14:06.509Z,6.10
2023-03-10T01:16:33.911Z,6.00
2023-03-10T01:19:01.332Z,6.00
2023-03-10T01:21:35.285Z,5.90
2023-03-10T01:24:03.731Z,5.90
2023-03-10T01:26:31.744Z,5.90
2023-03-10T01:28:59.623Z,5.80
2023-03-10T01:31:27.238Z,5.80
2023-03-10T01:33:55.040Z,5.70
2023-03-10T01:36:26.707Z,5.70
2023-03-10T01:38:56.658Z,5.70
2023-03-10T01:41:24.823Z,5.60
2023-03-10T01:43:57.288Z,5.50
2023-03-10T01:46:27.118Z,5.50
2023-03-10T01:48:57.127Z,5.40
2023-03-10T01:51:24.928Z,5.40
2023-03-10T01:53:52.791Z,5.40
2023-03-10T01:56:20.452Z,5.30
2023-03-10T01:58:48.701Z,5.30
2023-03-10T02:01:18.549Z,5.40
2023-03-10T02:04:02.656Z,5.30
2023-03-10T02:06:29.977Z,5.30
2023-03-10T02:09:04.051Z,5.30
2023-03-10T02:11:31.261Z,5.30
2023-03-10T02:14:04.413Z,5.20
2023-03-10T02:16:32.240Z,5.20
2023-03-10T02:19:00.321Z,5.20
2023-03-10T02:21:33.301Z,5.20
2023-03-10T02:24:27.233Z,5.20
2023-03-10T02:27:15.831Z,5.10
2023-03-10T02:30:14.988Z,5.10
2023-03-10T02:32:47.680Z,5.00
2023-03-10T02:35:14.954Z,5.00
2023-03-10T02:37:42.517Z,5.00
2023-03-10T02:40:35.114Z,4.90
2023-03-10T02:43:06.761Z,4.90
2023-03-10T02:45:37.791Z,4.80
2023-03-10T02:48:05.142Z,4.80
2023-03-10T02:50:39.041Z,4.70
2023-03-10T02:53:16.575Z,4.70
2023-03-10T02:55:44.137Z,4.60
2023-03-10T02:58:12.190Z,4.50
2023-03-10T03:00:42.797Z,4.50
2023-03-10T03:03:11.363Z,4.50
2023-03-10T03:05:39.314Z,4.40
2023-03-10T03:08:08.601Z,4.40
2023-03-10T03:10:37.414Z,4.30
2023-03-10T03:13:06.301Z,4.30
2023-03-10T03:15:34.071Z,4.30
2023-03-10T03:18:02.470Z,4.20
2023-03-10T03:20:31.315Z,4.20
2023-03-10T03:22:59.490Z,4.20
2023-03-10T03:25:28.903Z,4.20
2023-03-10T03:27:57.073Z,4.20
2023-03-10T03:30:27.844Z,4.10
2023-03-10T03:32:55.858Z,4.10
2023-03-10T03:35:28.293Z,4.10
2023-03-10T03:37:56.520Z,4.10
2023-03-10T03:40:25.500Z,4.00
2023-03-10T03:42:54.226Z,4.00
2023-03-10T03:45:25.236Z,4.00
2023-03-10T03:47:52.735Z,3.90
2023-03-10T03:50:21.869Z,3.90
2023-03-10T03:52:49.029Z,3.90
2023-03-10T03:55:19.282Z,3.90
2023-03-10T03:57:47.346Z,3.80
2023-03-10T04:00:22.722Z,3.80
2023-03-10T04:02:49.991Z,3.70
2023-03-10T04:05:17.670Z,3.70
2023-03-10T04:07:46.148Z,3.70
2023-03-10T04:10:23.725Z,3.70
2023-03-10T04:12:50.872Z,3.70
2023-03-10T04:15:18.092Z,3.70
2023-03-10T04:17:45.350Z,3.70
2023-03-10T04:20:14.329Z,3.70
2023-03-10T04:22:42.176Z,3.70
2023-03-10T04:25:09.804Z,3.60
2023-03-10T04:27:37.260Z,3.60
2023-03-10T04:30:07.203Z,3.60
2023-03-10T04:32:35.208Z,3.50
2023-03-10T04:35:02.467Z,3.50
2023-03-10T04:37:29.894Z,3.50
2023-03-10T04:39:57.290Z,3.50
2023-03-10T04:42:26.689Z,3.50
2023-03-10T04:44:53.931Z,3.40
2023-03-10T04:47:21.011Z,3.40
2023-03-10T04:49:48.093Z,3.40
2023-03-10T04:52:15.204Z,3.40
2023-03-10T04:54:42.306Z,3.40
2023-03-10T04:57:09.583Z,3.40
2023-03-10T04:59:37.778Z,3.40
2023-03-10T05:02:05.372Z,3.30
2023-03-10T05:04:32.639Z,3.30
2023-03-10T05:06:59.813Z,3.20
2023-03-10T05:09:27.050Z,3.20
2023-03-10T05:11:54.177Z,3.20
2023-03-10T05:14:21.312Z,3.20
2023-03-10T05:16:49.069Z,3.10
2023-03-10T05:19:16.408Z,3.20
2023-03-10T05:21:43.510Z,3.10
2023-03-10T05:24:10.741Z,3.10
2023-03-10T05:26:37.839Z,3.10
2023-03-10T05:29:05.412Z,3.10
2023-03-10T05:31:32.547Z,3.10
2023-03-10T05:33:59.826Z,3.10
2023-03-10T05:36:27.251Z,3.10
2023-03-10T05:38:54.439Z,3.00
2023-03-10T05:41:21.726Z,3.10
2023-03-10T05:43:48.818Z,3.00
2023-03-10T05:46:15.974Z,3.10
2023-03-10T05:48:43.112Z,3.10
2023-03-10T05:51:12.718Z,3.10
2023-03-10T05:53:40.827Z,3.10
2023-03-10T05:56:12.146Z,3.20
2023-03-10T05:58:39.826Z,3.20
2023-03-10T06:01:08.365Z,3.20
2023-03-10T06:03:36.746Z,3.20
2023-03-10T06:06:06.928Z,3.30
2023-03-10T06:08:35.011Z,3.40
2023-03-10T06:11:02.655Z,3.40
2023-03-10T06:13:30.107Z,3.50
2023-03-10T06:16:00.990Z,3.50
2023-03-10T06:18:29.098Z,3.60
2023-03-10T06:20:56.766Z,3.70
2023-03-10T06:23:25.906Z,3.80
2023-03-10T06:25:57.762Z,3.80
2023-03-10T06:28:25.810Z,3.90
2023-03-10T06:31:01.163Z,4.00
2023-03-10T06:33:29.416Z,4.10
2023-03-10T06:35:57.223Z,4.20
2023-03-10T06:38:25.098Z,4.20
2023-03-10T06:40:52.317Z,4.30
2023-03-10T06:43:19.524Z,4.40
2023-03-10T06:45:47.370Z,4.50
2023-03-10T06:48:15.824Z,4.60
2023-03-10T06:50:48.151Z,4.70
2023-03-10T06:53:20.280Z,4.90
2023-03-10T06:56:10.730Z,5.00
2023-03-10T06:58:38.812Z,5.10
2023-03-10T07:01:07.705Z,5.30
2023-03-10T07:03:36.700Z,5.40
2023-03-10T07:06:05.004Z,5.60
2023-03-10T07:08:32.118Z,5.70
2023-03-10T07:10:59.224Z,5.90
2023-03-10T07:13:26.468Z,6.10
2023-03-10T07:15:53.629Z,6.20
2023-03-10T07:18:20.780Z,6.40
2023-03-10T07:20:48.254Z,6.50
2023-03-10T07:23:15.908Z,6.60
2023-03-10T07:25:43.143Z,6.80
2023-03-10T07:28:10.540Z,6.90
2023-03-10T07:30:39.917Z,7.10
2023-03-10T07:33:07.192Z,7.30
2023-03-10T07:35:36.763Z,7.40
2023-03-10T07:38:04.863Z,7.60
2023-03-10T07:40:32.729Z,7.70
2023-03-10T07:43:00.043Z,7.90
2023-03-10T07:45:28.165Z,8.00
2023-03-10T07:47:55.290Z,8.20
2023-03-10T07:50:22.839Z,8.30
2023-03-10T07:52:50.300Z,8.40
2023-03-10T07:55:18.395Z,8.50
2023-03-10T07:57:45.556Z,8.70
2023-03-10T08:00:14.271Z,8.90
2023-03-10T08:02:42.561Z,9.00
2023-03-10T08:05:11.517Z,9.10
2023-03-10T08:07:39.079Z,9.30
2023-03-10T08:10:07.582Z,9.40
2023-03-10T08:12:35.648Z,9.50
2023-03-10T08:15:02.954Z,9.70
2023-03-10T08:17:31.009Z,9.80
2023-03-10T08:19:59.173Z,9.90
2023-03-10T08:22:27.474Z,10.20
2023-03-10T08:24:56.153Z,10.20
2023-03-10T08:27:23.367Z,10.40
2023-03-10T08:29:50.601Z,10.50
2023-03-10T08:32:19.522Z,10.60
2023-03-10T08:34:47.202Z,10.80
2023-03-10T08:37:14.393Z,11.00
2023-03-10T08:39:41.604Z,11.10
2023-03-10T08:42:14.144Z,11.30
2023-03-10T08:44:41.962Z,11.50
2023-03-10T08:47:09.197Z,11.80
2023-03-10T08:49:37.081Z,12.00
2023-03-10T08:52:04.726Z,12.20
2023-03-10T08:54:32.704Z,12.40
2023-03-10T08:57:00.829Z,12.70
2023-03-10T08:59:28.146Z,12.90
2023-03-10T09:01:55.275Z,13.20
2023-03-10T09:04:22.793Z,13.30
2023-03-10T09:06:49.916Z,13.40
2023-03-10T09:09:17.333Z,13.60
2023-03-10T09:11:44.866Z,13.70
2023-03-10T09:14:14.542Z,13.80
2023-03-10T09:16:43.205Z,14.00
2023-03-10T09:19:10.398Z,14.20
2023-03-10T09:21:37.585Z,14.30
2023-03-10T09:24:04.994Z,14.40
2023-03-10T09:26:32.112Z,14.50
2023-03-10T09:28:59.218Z,14.70
2023-03-10T09:31:34.921Z,14.80
2023-03-10T09:34:02.960Z,14.90
2023-03-10T09:36:30.338Z,15.10
2023-03-10T09:38:59.036Z,15.40
2023-03-10T09:41:44.151Z,15.70
2023-03-10T09:44:38.423Z,16.00
2023-03-10T09:47:46.806Z,16.20
2023-03-10T09:50:46.230Z,16.50
2023-03-10T09:53:44.226Z,16.90
2023-03-10T09:56:20.099Z,17.10
2023-03-10T09:58:53.005Z,17.30
2023-03-10T10:01:28.086Z,17.30
2023-03-10T10:04:20.419Z,17.30
2023-03-10T10:06:51.111Z,17.20
2023-03-10T10:09:32.757Z,17.00
2023-03-10T10:12:18.673Z,17.10
2023-03-10T10:14:56.767Z,17.10
2023-03-10T10:18:19.581Z,17.20
2023-03-10T10:21:16.539Z,17.40
2023-03-10T10:23:50.602Z,17.30
2023-03-10T10:26:25.211Z,17.40
2023-03-10T10:29:12.890Z,17.30
2023-03-10T10:31:40.167Z,17.30
2023-03-10T10:34:22.819Z,17.50
2023-03-10T10:36:56.374Z,17.60
2023-03-10T10:39:37.764Z,17.80
2023-03-10T10:42:32.694Z,18.10
2023-03-10T10:45:06.499Z,18.40
2023-03-10T10:47:49.900Z,18.50
2023-03-10T10:50:30.196Z,18.50
2023-03-10T10:53:26.227Z,18.70
2023-03-10T10:56:06.443Z,18.90
2023-03-10T10:58:38.513Z,19.00
2023-03-10T11:01:09.594Z,19.20
2023-03-10T11:03:43.676Z,19.70
2023-03-10T11:06:25.620Z,20.70
2023-03-10T11:09:03.332Z,21.30
2023-03-10T11:11:52.211Z,22.00
2023-03-10T11:14:57.758Z,22.50
2023-03-10T11:17:57.503Z,22.80
2023-03-10T11:21:09.558Z,23.10
2023-03-10T11:23:49.887Z,23.40
2023-03-10T11:26:31.694Z,23.90
2023-03-10T11:29:26.546Z,23.80
2023-03-10T11:31:59.549Z,23.60
2023-03-10T11:34:32.875Z,23.10
2023-03-10T11:37:30.998Z,22.70
2023-03-10T11:43:08.572Z,21.70
2023-03-10T11:45:55.619Z,21.40
2023-03-10T11:48:50.037Z,21.40
2023-03-10T11:51:28.778Z,21.50
2023-03-10T11:53:59.116Z,21.60
2023-03-10T11:56:28.410Z,21.80
2023-03-10T11:59:17.687Z,21.80
2023-03-10T12:02:14.698Z,21.70
2023-03-10T12:04:58.566Z,21.40
2023-03-10T12:07:42.999Z,20.70
2023-03-10T12:10:12.996Z,20.30
2023-03-10T12:12:44.995Z,20.00
2023-03-10T12:15:37.166Z,19.80
2023-03-10T12:18:06.392Z,19.70
2023-03-10T12:20:35.548Z,19.80
2023-03-10T12:23:11.828Z,19.90
2023-03-10T12:25:38.817Z,20.10
2023-03-10T12:28:20.871Z,20.30
2023-03-10T12:31:00.785Z,20.30
2023-03-10T12:33:31.089Z,20.40
2023-03-10T12:36:09.909Z,20.40
2023-03-10T12:38:54.036Z,20.20
2023-03-10T12:41:27.087Z,20.10
2023-03-10T12:44:19.609Z,20.10
2023-03-10T12:47:15.900Z,20.80
2023-03-10T12:50:03.870Z,21.50
2023-03-10T12:53:07.607Z,21.50
2023-03-10T12:55:34.820Z,21.90
2023-03-10T12:58:23.370Z,22.20
2023-03-10T13:00:50.486Z,22.30
2023-03-10T13:03:44.892Z,22.00
2023-03-10T13:06:13.287Z,21.60
2023-03-10T13:08:45.391Z,21.00
2023-03-10T13:11:50.658Z,20.70
2023-03-10T13:14:39.614Z,20.60
2023-03-10T13:17:18.590Z,20.60
2023-03-10T13:20:14.715Z,20.80
2023-03-10T13:22:57.485Z,21.00
2023-03-10T13:25:26.458Z,21.30
2023-03-10T13:27:57.352Z,21.60
2023-03-10T13:30:27.886Z,21.90
2023-03-10T13:33:02.104Z,22.10
2023-03-10T13:35:39.242Z,22.30
2023-03-10T13:38:22.101Z,22.40
2023-03-10T13:41:10.178Z,22.50
2023-03-10T13:43:51.413Z,22.80
2023-03-10T13:46:30.371Z,22.90
2023-03-10T13:49:06.928Z,23.10
2023-03-10T13:51:37.958Z,23.30
2023-03-10T13:54:41.412Z,23.50
2023-03-10T13:57:14.145Z,23.60
2023-03-10T13:59:41.607Z,23.50
2023-03-10T14:02:39.455Z,23.40
2023-03-10T14:05:08.850Z,23.00
2023-03-10T14:07:38.680Z,22.30
2023-03-10T14:10:05.824Z,21.90
2023-03-10T14:12:56.043Z,21.60
2023-03-10T14:15:38.239Z,21.40
2023-03-10T14:18:08.246Z,21.10
2023-03-10T14:20:42.336Z,20.80
2023-03-10T14:23:18.509Z,20.60
2023-03-10T14:25:57.415Z,20.40
2023-03-10T14:28:27.665Z,20.40
2023-03-10T14:30:55.529Z,20.40
2023-03-10T14:33:23.373Z,20.20
2023-03-10T14:35:50.947Z,20.10
2023-03-10T14:38:18.540Z,20.10
2023-03-10T14:40:49.509Z,19.90
2023-03-10T14:45:53.197Z,19.70
2023-03-10T14:48:24.628Z,19.40
2023-03-10T14:50:53.391Z,19.20
2023-03-10T14:53:25.423Z,19.10
2023-03-10T14:55:56.068Z,18.90
2023-03-10T14:58:49.431Z,18.70
2023-03-10T15:01:18.966Z,18.60
2023-03-10T15:03:46.715Z,18.50
2023-03-10T15:08:43.130Z,18.30
2023-03-10T15:11:10.371Z,18.20
2023-03-10T15:13:39.197Z,18.20
2023-03-10T15:16:07.440Z,18.10
2023-03-10T15:18:34.740Z,18.00
2023-03-10T15:21:03.399Z,18.00
2023-03-10T15:23:31.370Z,17.90
2023-03-10T15:25:59.279Z,17.80
2023-03-10T15:28:26.601Z,17.80
2023-03-10T15:30:54.846Z,17.80
2023-03-10T15:33:22.289Z,17.70
2023-03-10T15:35:50.263Z,17.70
2023-03-10T15:38:17.506Z,17.60
2023-03-10T15:40:45.041Z,17.50
2023-03-10T15:43:12.261Z,17.50
2023-03-10T15:45:49.229Z,17.40
2023-03-10T15:48:17.448Z,17.30
2023-03-10T15:50:49.135Z,17.30
2023-03-10T15:53:16.406Z,17.30
2023-03-10T15:55:43.707Z,17.30
2023-03-10T15:58:12.076Z,17.30
2023-03-10T16:00:40.250Z,17.30
2023-03-10T16:03:07.604Z,17.30
2023-03-10T16:05:37.012Z,17.20
2023-03-10T16:08:08.308Z,17.20
2023-03-10T16:10:35.725Z,17.10
2023-03-10T16:13:02.862Z,17.00
2023-03-10T16:15:29.998Z,17.00
2023-03-10T16:17:58.463Z,16.90
2023-03-10T16:20:25.694Z,16.70
2023-03-10T16:22:54.812Z,16.60
2023-03-10T16:25:22.638Z,16.50
2023-03-10T16:27:50.212Z,16.40
2023-03-10T16:30:18.498Z,16.30
2023-03-10T16:32:48.042Z,16.20
2023-03-10T16:35:16.887Z,16.00
2023-03-10T16:37:44.877Z,15.90
2023-03-10T16:40:13.686Z,15.80
2023-03-10T16:42:45.430Z,15.70
2023-03-10T16:45:13.721Z,15.60
2023-03-10T16:47:42.210Z,15.50
2023-03-10T16:50:13.019Z,15.40
2023-03-10T16:52:42.495Z,15.30
2023-03-10T16:55:19.027Z,15.20
2023-03-10T16:57:46.710Z,15.10
2023-03-10T17:00:15.143Z,15.10
2023-03-10T17:02:42.302Z,15.00
2023-03-10T17:05:10.394Z,14.90
2023-03-10T17:07:46.460Z,14.80
2023-03-10T17:10:21.010Z,14.70
2023-03-10T17:12:48.876Z,14.60
2023-03-10T17:15:16.393Z,14.60
2023-03-10T17:17:43.556Z,14.50
2023-03-10T17:20:12.285Z,14.40
2023-03-10T17:22:39.693Z,14.40
2023-03-10T17:25:07.818Z,14.30
2023-03-10T17:27:35.113Z,14.20
2023-03-10T17:30:02.550Z,14.20
2023-03-10T17:32:31.236Z,14.10
2023-03-10T17:34:58.667Z,14.00
2023-03-10T17:37:28.000Z,14.00
2023-03-10T17:39:56.580Z,13.90
2023-03-10T17:42:25.924Z,13.80
2023-03-10T17:44:55.415Z,13.80
2023-03-10T17:47:23.518Z,13.70
2023-03-10T17:49:52.754Z,13.70
2023-03-10T17:52:20.289Z,13.60
2023-03-10T17:54:48.051Z,13.60
2023-03-10T17:57:15.802Z,13.50
2023-03-10T17:59:44.944Z,13.50
2023-03-10T18:02:15.668Z,13.50
2023-03-10T18:04:46.884Z,13.50
2023-03-10T18:07:14.338Z,13.40
2023-03-10T18:09:42.215Z,13.50
2023-03-10T18:12:10.384Z,13.60
2023-03-10T18:14:38.414Z,13.50
2023-03-10T18:17:06.480Z,13.40
2023-03-10T18:19:34.020Z,13.20
2023-03-10T18:22:01.402Z,13.20
2023-03-10T18:24:31.608Z,13.20
2023-03-10T18:27:01.688Z,13.10
2023-03-10T18:29:29.620Z,13.10
2023-03-10T18:32:08.428Z,13.10
2023-03-10T18:34:37.637Z,13.10
2023-03-10T18:37:05.671Z,13.00
2023-03-10T18:39:33.585Z,13.00
2023-03-10T18:42:02.851Z,12.90
2023-03-10T18:44:32.221Z,12.90
2023-03-10T18:47:01.498Z,12.80
2023-03-10T18:49:30.082Z,12.80
2023-03-10T18:51:59.187Z,12.80
2023-03-10T18:54:29.336Z,12.80
2023-03-10T18:57:02.289Z,12.70
2023-03-10T18:59:30.566Z,12.60
2023-03-10T19:01:58.829Z,12.60
2023-03-10T19:04:27.284Z,12.50
2023-03-10T19:06:55.836Z,12.50
2023-03-10T19:09:25.588Z,12.60
2023-03-10T19:11:58.931Z,12.60
2023-03-10T19:14:27.311Z,12.60
2023-03-10T19:16:55.386Z,12.70
2023-03-10T19:19:23.711Z,12.70
2023-03-10T19:21:52.005Z,12.70
2023-03-10T19:24:20.884Z,12.70
2023-03-10T19:26:50.182Z,12.70
2023-03-10T19:29:18.566Z,12.80
2023-03-10T19:31:49.078Z,12.80
2023-03-10T19:34:20.179Z,12.70
2023-03-10T19:36:48.305Z,12.80
2023-03-10T19:39:16.779Z,12.70
2023-03-10T19:41:44.969Z,12.70
2023-03-10T19:44:13.238Z,12.60
2023-03-10T19:46:41.654Z,12.60
2023-03-10T19:49:10.263Z,12.60
2023-03-10T19:51:37.890Z,12.60
2023-03-10T19:54:06.341Z,12.60
2023-03-10T19:56:34.400Z,12.50
2023-03-10T19:59:04.566Z,12.50
2023-03-10T20:01:33.614Z,12.40
2023-03-10T20:04:04.004Z,12.40
2023-03-10T20:06:32.627Z,12.40
2023-03-10T20:09:01.241Z,12.30
2023-03-10T20:11:29.790Z,12.30
2023-03-10T20:13:58.128Z,12.30
2023-03-10T20:16:28.063Z,12.20
2023-03-10T20:18:56.651Z,12.20
2023-03-10T20:21:25.239Z,12.10
2023-03-10T20:23:55.868Z,12.10
2023-03-10T20:26:24.632Z,12.10
2023-03-10T20:28:53.974Z,12.00
2023-03-10T20:31:24.435Z,12.00
2023-03-10T20:33:52.863Z,12.00
2023-03-10T20:36:20.633Z,12.00
2023-03-10T20:38:51.128Z,11.90
2023-03-10T20:41:20.831Z,11.80
2023-03-10T20:43:49.957Z,11.90
2023-03-10T20:46:19.739Z,11.80
2023-03-10T20:48:51.423Z,11.80
2023-03-10T20:51:22.469Z,11.80
2023-03-10T20:53:52.560Z,11.80
2023-03-10T20:56:20.874Z,11.70
2023-03-10T20:58:49.288Z,11.70
2023-03-10T21:01:23.233Z,11.70
2023-03-10T21:03:55.092Z,11.70
2023-03-10T21:06:28.147Z,11.60
2023-03-10T21:08:56.095Z,11.60
2023-03-10T21:11:23.524Z,11.70
2023-03-10T21:13:51.971Z,11.60
2023-03-10T21:16:20.876Z,11.60
2023-03-10T21:18:48.746Z,11.60
2023-03-10T21:21:16.572Z,11.60
2023-03-10T21:23:44.554Z,11.60
2023-03-10T21:26:15.286Z,11.60
2023-03-10T21:28:42.908Z,11.60
2023-03-10T21:31:12.136Z,11.60
2023-03-10T21:33:44.322Z,11.50
2023-03-10T21:36:17.684Z,11.50
2023-03-10T21:38:48.893Z,11.40
2023-03-10T21:41:24.610Z,11.40
2023-03-10T21:43:54.372Z,11.40
2023-03-10T21:46:22.142Z,11.40
2023-03-10T21:48:49.650Z,11.30
2023-03-10T21:51:20.339Z,11.30
2023-03-10T21:53:47.947Z,11.40
2023-03-10T21:56:17.788Z,11.30
2023-03-10T21:58:46.505Z,11.30
2023-03-10T22:01:17.157Z,11.30
2023-03-10T22:03:44.625Z,11.30
2023-03-10T22:06:12.204Z,11.20
2023-03-10T22:08:39.910Z,11.20
2023-03-10T22:11:09.491Z,11.10
2023-03-10T22:13:39.167Z,11.10
2023-03-10T22:16:10.708Z,11.10
2023-03-10T22:18:38.232Z,11.10
2023-03-10T22:21:05.670Z,11.10
2023-03-10T22:23:32.848Z,11.10
2023-03-10T22:25:59.985Z,11.00
2023-03-10T22:28:27.203Z,11.00
2023-03-10T22:30:54.504Z,11.00
2023-03-10T22:33:21.721Z,11.00
2023-03-10T22:35:52.137Z,11.00
2023-03-10T22:38:20.639Z,11.00
2023-03-10T22:40:48.806Z,11.00
2023-03-10T22:43:16.263Z,10.90
2023-03-10T22:45:43.451Z,11.00
2023-03-10T22:48:10.854Z,11.00
2023-03-10T22:50:43.608Z,11.00
2023-03-10T22:53:17.176Z,11.00
2023-03-10T22:55:46.523Z,11.00
2023-03-10T22:58:14.387Z,11.00
2023-03-10T23:00:42.595Z,10.90
2023-03-10T23:03:15.405Z,10.90
2023-03-10T23:05:45.023Z,10.90
2023-03-10T23:08:13.001Z,10.80
2023-03-10T23:10:41.578Z,10.80
2023-03-10T23:13:16.428Z,10.90
2023-03-10T23:15:45.275Z,10.80
2023-03-10T23:18:13.084Z,10.80
2023-03-10T23:20:47.780Z,10.80
2023-03-10T23:23:18.283Z,10.80
2023-03-10T23:25:48.645Z,10.80
2023-03-10T23:28:17.116Z,10.80
2023-03-10T23:30:47.277Z,10.70
2023-03-10T23:33:21.796Z,10.70
2023-03-10T23:35:54.456Z,10.70
2023-03-10T23:38:24.816Z,10.60
2023-03-10T23:40:53.730Z,10.60
2023-03-10T23:43:21.225Z,10.60
2023-03-10T23:45:48.586Z,10.60
2023-03-10T23:48:18.595Z,10.60
2023-03-10T23:50:48.063Z,10.50
2023-03-10T23:53:18.123Z,10.50
2023-03-10T23:55:47.276Z,10.50
2023-03-10T23:58:17.137Z,10.50
